Gran Canaria > ESTACION METEOROLÓGICA Villa de Moya

DATOS ACTUALES Online

Ultima actulizacion 1 h 5 minutos

16.5 ºC

Temperatura

84

Humedad (%)

964.32

Presión (mb)

0

Precipitación (mm)

10.3 SO

Viento (Km/h)

DATOS DIARIOS

Temperatura últimas 24 horas (ºC)

Humedad últimas 24 horas (%)

Presión atmosférica últimas 24 horas (mb)

Precipitaciones últimas 23 horas (mm)

Viento últimas 24 horas (Km/h)

Hora Temperatura (°C) ºC Precipitación (mm) mm Presión (mb) mb Humedad (%) % Viento (Km/h) km/h
28 - 10:00 17.5 0 964 78 22.6 NO
28 - 11:00 17.9 0 964 79 23.4 NO
28 - 12:00 19.1 0 964 67 25.1 N
28 - 13:00 19.1 0 964 72 26.2 NO
28 - 14:00 19.1 0 964 74 32.5 NO
28 - 15:00 20 0 964 69 21.4 NO
28 - 16:00 19.3 0 964 71 22.7 NO
28 - 17:00 18.8 0 964 70 23.3 NO
28 - 18:00 18.8 0 963 77 16.4 N
28 - 19:00 18.1 0 964 81 17.6 NO
28 - 20:00 17.6 0 964 83 17.9 NO
28 - 21:00 17.3 0 964 89 20.1 N
28 - 22:00 16.6 0 964 89 14.4 NO
28 - 23:00 16.2 0.1 965 92 14.5 NO
29 - 00:00 16.1 0.2 965 92 18.7 NO
29 - 01:00 15.9 0 964 90 10.6 SO
29 - 02:00 16 0 964 93 10.8 NO
29 - 03:00 15.8 0.1 963 92 15.5 N
29 - 04:00 15.6 0.1 963 90 12 NO
29 - 05:00 15.9 0.1 963 89 15 NO
29 - 06:00 16 0.1 963 89 16 N
29 - 07:00 16 0.1 964 88 12.3 NO
29 - 08:00 16.1 0.1 964 87 12.8 N
29 - 09:00 16.5 0 964 84 10.3 SO
29 - 10:00
Apalmet utiliza cookies propias y de terceros para mejorar la usabilidad y la experiencia web. Política de cookies.